sensor_id;sensor_type;location;lat;lon;timestamp;pressure;altitude;pressure_sealevel;temperature;humidity
30897;BME280;64229;52.246;21.054;2023-05-08T00:00:45;101923.72;;;4.74;97.70
30897;BME280;64229;52.246;21.054;2023-05-08T00:03:11;101924.53;;;4.75;97.84
30897;BME280;64229;52.246;21.054;2023-05-08T00:05:36;101933.09;;;4.77;97.80
30897;BME280;64229;52.246;21.054;2023-05-08T00:08:02;101922.91;;;4.74;98.00
30897;BME280;64229;52.246;21.054;2023-05-08T00:10:27;101928.47;;;4.79;98.14
30897;BME280;64229;52.246;21.054;2023-05-08T00:12:53;101925.34;;;4.75;97.86
30897;BME280;64229;52.246;21.054;2023-05-08T00:15:19;101926.16;;;4.76;98.04
30897;BME280;64229;52.246;21.054;2023-05-08T00:17:45;101925.53;;;4.74;98.38
30897;BME280;64229;52.246;21.054;2023-05-08T00:20:10;101919.25;;;4.75;98.70
30897;BME280;64229;52.246;21.054;2023-05-08T00:22:36;101929.81;;;4.75;98.63
30897;BME280;64229;52.246;21.054;2023-05-08T00:25:02;101909.34;;;4.62;98.76
30897;BME280;64229;52.246;21.054;2023-05-08T00:27:29;101932.66;;;4.73;98.83
30897;BME280;64229;52.246;21.054;2023-05-08T00:29:55;101918.72;;;4.64;98.89
30897;BME280;64229;52.246;21.054;2023-05-08T00:32:20;101898.41;;;4.50;98.66
30897;BME280;64229;52.246;21.054;2023-05-08T00:34:46;101897.31;;;4.45;98.32
30897;BME280;64229;52.246;21.054;2023-05-08T00:37:11;101928.09;;;4.67;97.91
30897;BME280;64229;52.246;21.054;2023-05-08T00:39:36;101933.22;;;4.69;97.71
30897;BME280;64229;52.246;21.054;2023-05-08T00:42:02;101939.50;;;4.68;97.45
30897;BME280;64229;52.246;21.054;2023-05-08T00:44:27;101931.75;;;4.66;97.55
30897;BME280;64229;52.246;21.054;2023-05-08T00:46:53;101944.34;;;4.64;97.57
30897;BME280;64229;52.246;21.054;2023-05-08T00:49:19;101931.22;;;4.56;97.59
30897;BME280;64229;52.246;21.054;2023-05-08T00:51:45;101943.91;;;4.60;97.67
30897;BME280;64229;52.246;21.054;2023-05-08T00:54:11;101944.09;;;4.59;97.93
30897;BME280;64229;52.246;21.054;2023-05-08T00:56:37;101949.09;;;4.54;97.98
30897;BME280;64229;52.246;21.054;2023-05-08T00:59:11;101926.97;;;4.40;97.91
30897;BME280;64229;52.246;21.054;2023-05-08T01:01:37;101959.22;;;4.50;98.24
30897;BME280;64229;52.246;21.054;2023-05-08T01:04:04;101965.34;;;4.51;98.17
30897;BME280;64229;52.246;21.054;2023-05-08T01:06:30;101962.25;;;4.47;98.43
30897;BME280;64229;52.246;21.054;2023-05-08T01:08:56;101931.44;;;4.25;98.60
30897;BME280;64229;52.246;21.054;2023-05-08T01:15:01;101975.94;;;4.36;98.86
30897;BME280;64229;52.246;21.054;2023-05-08T01:17:42;101965.69;;;4.33;99.09
30897;BME280;64229;52.246;21.054;2023-05-08T01:20:31;101975.00;;;4.29;99.21
30897;BME280;64229;52.246;21.054;2023-05-08T01:26:10;101975.72;;;4.23;99.82
30897;BME280;64229;52.246;21.054;2023-05-08T01:31:50;101979.28;;;4.15;99.52
30897;BME280;64229;52.246;21.054;2023-05-08T01:34:21;101974.34;;;4.12;99.54
30897;BME280;64229;52.246;21.054;2023-05-08T01:37:04;101981.00;;;4.08;99.22
30897;BME280;64229;52.246;21.054;2023-05-08T01:39:38;101973.59;;;4.03;99.56
30897;BME280;64229;52.246;21.054;2023-05-08T01:44:56;101977.97;;;3.96;99.31
30897;BME280;64229;52.246;21.054;2023-05-08T01:47:26;101974.84;;;3.93;99.25
30897;BME280;64229;52.246;21.054;2023-05-08T01:50:06;101987.25;;;3.92;99.03
30897;BME280;64229;52.246;21.054;2023-05-08T01:52:44;101989.06;;;3.92;98.49
30897;BME280;64229;52.246;21.054;2023-05-08T01:57:57;101984.72;;;3.84;98.62
30897;BME280;64229;52.246;21.054;2023-05-08T02:00:24;101984.03;;;3.82;98.41
30897;BME280;64229;52.246;21.054;2023-05-08T02:02:53;101984.41;;;3.79;98.27
30897;BME280;64229;52.246;21.054;2023-05-08T02:05:21;101990.41;;;3.73;98.46
30897;BME280;64229;52.246;21.054;2023-05-08T02:07:48;101984.94;;;3.74;98.08
30897;BME280;64229;52.246;21.054;2023-05-08T02:10:16;101979.19;;;3.71;98.52
30897;BME280;64229;52.246;21.054;2023-05-08T02:12:43;101995.84;;;3.71;98.62
30897;BME280;64229;52.246;21.054;2023-05-08T02:15:11;101994.41;;;3.69;98.21
30897;BME280;64229;52.246;21.054;2023-05-08T02:17:38;101991.94;;;3.67;98.34
30897;BME280;64229;52.246;21.054;2023-05-08T02:20:05;101983.25;;;3.59;98.20
30897;BME280;64229;52.246;21.054;2023-05-08T02:22:32;101993.28;;;3.63;98.52
30897;BME280;64229;52.246;21.054;2023-05-08T02:24:59;101993.63;;;3.60;98.17
30897;BME280;64229;52.246;21.054;2023-05-08T02:27:27;101994.63;;;3.59;98.13
30897;BME280;64229;52.246;21.054;2023-05-08T02:29:54;101989.72;;;3.56;98.11
30897;BME280;64229;52.246;21.054;2023-05-08T02:32:24;101993.34;;;3.55;98.32
30897;BME280;64229;52.246;21.054;2023-05-08T02:34:50;101996.00;;;3.55;98.16
30897;BME280;64229;52.246;21.054;2023-05-08T02:37:18;101981.56;;;3.43;98.28
30897;BME280;64229;52.246;21.054;2023-05-08T02:39:46;101998.81;;;3.54;97.94
30897;BME280;64229;52.246;21.054;2023-05-08T02:42:12;101989.94;;;3.46;97.99
30897;BME280;64229;52.246;21.054;2023-05-08T02:44:38;101995.59;;;3.43;97.70
30897;BME280;64229;52.246;21.054;2023-05-08T02:47:08;101989.00;;;3.39;97.62
30897;BME280;64229;52.246;21.054;2023-05-08T02:49:47;101989.19;;;3.38;98.17
30897;BME280;64229;52.246;21.054;2023-05-08T02:52:18;101993.63;;;3.37;97.97
30897;BME280;64229;52.246;21.054;2023-05-08T03:00:11;101994.81;;;3.35;98.02
30897;BME280;64229;52.246;21.054;2023-05-08T03:02:42;101975.47;;;3.19;98.22
30897;BME280;64229;52.246;21.054;2023-05-08T03:05:18;101999.63;;;3.31;98.38
30897;BME280;64229;52.246;21.054;2023-05-08T03:07:46;101995.34;;;3.30;98.25
30897;BME280;64229;52.246;21.054;2023-05-08T03:10:14;101993.69;;;3.29;98.53
30897;BME280;64229;52.246;21.054;2023-05-08T03:12:44;101990.31;;;3.21;98.52
30897;BME280;64229;52.246;21.054;2023-05-08T03:15:26;102005.91;;;3.30;98.74
30897;BME280;64229;52.246;21.054;2023-05-08T03:17:55;102007.88;;;3.28;98.54
30897;BME280;64229;52.246;21.054;2023-05-08T03:20:22;101960.53;;;3.04;98.44
30897;BME280;64229;52.246;21.054;2023-05-08T03:22:49;102012.16;;;3.29;97.70
30897;BME280;64229;52.246;21.054;2023-05-08T03:25:16;102019.44;;;3.27;97.82
30897;BME280;64229;52.246;21.054;2023-05-08T03:27:44;102021.88;;;3.29;97.55
30897;BME280;64229;52.246;21.054;2023-05-08T03:30:10;102021.25;;;3.27;97.04
30897;BME280;64229;52.246;21.054;2023-05-08T03:32:37;102022.97;;;3.19;96.66
30897;BME280;64229;52.246;21.054;2023-05-08T03:35:04;102029.38;;;3.17;96.85
30897;BME280;64229;52.246;21.054;2023-05-08T03:37:30;102023.47;;;3.15;97.05
30897;BME280;64229;52.246;21.054;2023-05-08T03:39:56;102028.28;;;3.11;96.65
30897;BME280;64229;52.246;21.054;2023-05-08T03:42:23;102033.06;;;3.08;97.57
30897;BME280;64229;52.246;21.054;2023-05-08T03:44:49;102026.97;;;3.07;97.40
30897;BME280;64229;52.246;21.054;2023-05-08T03:47:17;102019.88;;;3.08;97.53
30897;BME280;64229;52.246;21.054;2023-05-08T03:49:45;102025.81;;;3.10;97.37
30897;BME280;64229;52.246;21.054;2023-05-08T03:52:12;102025.63;;;3.11;97.43
30897;BME280;64229;52.246;21.054;2023-05-08T03:54:37;102025.47;;;3.13;97.29
30897;BME280;64229;52.246;21.054;2023-05-08T03:57:03;102024.47;;;3.14;97.61
30897;BME280;64229;52.246;21.054;2023-05-08T04:02:13;102027.41;;;3.19;97.45
30897;BME280;64229;52.246;21.054;2023-05-08T04:04:44;102025.41;;;3.21;97.06
30897;BME280;64229;52.246;21.054;2023-05-08T04:07:13;102020.78;;;3.23;96.88
30897;BME280;64229;52.246;21.054;2023-05-08T04:10:04;102028.69;;;3.23;96.83
30897;BME280;64229;52.246;21.054;2023-05-08T04:15:13;102032.81;;;3.26;96.93
30897;BME280;64229;52.246;21.054;2023-05-08T04:17:49;102045.78;;;3.35;97.17
30897;BME280;64229;52.246;21.054;2023-05-08T04:20:19;102048.88;;;3.39;96.85
30897;BME280;64229;52.246;21.054;2023-05-08T04:22:46;102053.66;;;3.43;96.54
30897;BME280;64229;52.246;21.054;2023-05-08T04:25:14;102053.94;;;3.48;96.41
30897;BME280;64229;52.246;21.054;2023-05-08T04:27:40;102052.13;;;3.49;96.04
30897;BME280;64229;52.246;21.054;2023-05-08T04:30:07;102063.19;;;3.53;96.06
30897;BME280;64229;52.246;21.054;2023-05-08T04:32:34;102066.91;;;3.58;96.10
30897;BME280;64229;52.246;21.054;2023-05-08T04:35:01;102065.59;;;3.62;95.69
30897;BME280;64229;52.246;21.054;2023-05-08T04:37:28;102073.78;;;3.67;95.96
30897;BME280;64229;52.246;21.054;2023-05-08T04:39:55;102062.88;;;3.70;95.83
30897;BME280;64229;52.246;21.054;2023-05-08T04:42:20;102068.91;;;3.79;96.02
30897;BME280;64229;52.246;21.054;2023-05-08T04:44:46;102073.59;;;3.92;95.93
30897;BME280;64229;52.246;21.054;2023-05-08T04:47:12;102073.09;;;3.96;95.73
30897;BME280;64229;52.246;21.054;2023-05-08T04:49:38;102071.03;;;4.06;95.48
30897;BME280;64229;52.246;21.054;2023-05-08T04:52:03;102078.03;;;4.14;95.48
30897;BME280;64229;52.246;21.054;2023-05-08T04:54:29;102078.97;;;4.21;95.44
30897;BME280;64229;52.246;21.054;2023-05-08T04:56:54;102085.66;;;4.32;95.27
30897;BME280;64229;52.246;21.054;2023-05-08T04:59:19;102083.94;;;4.39;94.99
30897;BME280;64229;52.246;21.054;2023-05-08T05:01:46;102083.88;;;4.47;94.80
30897;BME280;64229;52.246;21.054;2023-05-08T05:04:11;102096.81;;;4.57;94.78
30897;BME280;64229;52.246;21.054;2023-05-08T05:06:37;102099.03;;;4.68;94.29
30897;BME280;64229;52.246;21.054;2023-05-08T05:09:02;102097.28;;;4.75;94.41
30897;BME280;64229;52.246;21.054;2023-05-08T05:11:28;102088.06;;;4.86;94.51
30897;BME280;64229;52.246;21.054;2023-05-08T05:13:54;102100.84;;;4.97;93.84
30897;BME280;64229;52.246;21.054;2023-05-08T05:16:19;102094.44;;;5.06;93.63
30897;BME280;64229;52.246;21.054;2023-05-08T05:18:44;102107.03;;;5.19;93.10
30897;BME280;64229;52.246;21.054;2023-05-08T05:21:10;102106.75;;;5.29;93.00
30897;BME280;64229;52.246;21.054;2023-05-08T05:23:35;102100.53;;;5.36;92.68
30897;BME280;64229;52.246;21.054;2023-05-08T05:26:01;102113.72;;;5.51;91.72
30897;BME280;64229;52.246;21.054;2023-05-08T05:28:26;102106.25;;;5.55;91.19
30897;BME280;64229;52.246;21.054;2023-05-08T05:30:52;102103.34;;;5.71;91.43
30897;BME280;64229;52.246;21.054;2023-05-08T05:33:17;102099.50;;;5.73;90.19
30897;BME280;64229;52.246;21.054;2023-05-08T05:35:43;102105.97;;;5.86;89.88
30897;BME280;64229;52.246;21.054;2023-05-08T05:38:08;102093.69;;;5.85;89.58
30897;BME280;64229;52.246;21.054;2023-05-08T05:40:33;102106.00;;;6.07;89.08
30897;BME280;64229;52.246;21.054;2023-05-08T05:42:59;102114.59;;;6.16;88.24
30897;BME280;64229;52.246;21.054;2023-05-08T05:45:25;102121.41;;;6.25;88.01
30897;BME280;64229;52.246;21.054;2023-05-08T05:47:50;102115.56;;;6.29;87.68
30897;BME280;64229;52.246;21.054;2023-05-08T05:50:18;102115.41;;;6.37;87.50
30897;BME280;64229;52.246;21.054;2023-05-08T05:52:43;102123.69;;;6.49;87.07
30897;BME280;64229;52.246;21.054;2023-05-08T05:55:09;102121.50;;;6.59;86.89
30897;BME280;64229;52.246;21.054;2023-05-08T05:57:34;102122.16;;;6.68;86.47
30897;BME280;64229;52.246;21.054;2023-05-08T06:00:01;102119.34;;;6.76;85.92
30897;BME280;64229;52.246;21.054;2023-05-08T06:02:26;102101.19;;;6.73;85.44
30897;BME280;64229;52.246;21.054;2023-05-08T06:04:51;102128.25;;;6.96;84.75
30897;BME280;64229;52.246;21.054;2023-05-08T06:07:17;102118.91;;;7.07;84.04
30897;BME280;64229;52.246;21.054;2023-05-08T06:09:42;102130.41;;;7.21;83.24
30897;BME280;64229;52.246;21.054;2023-05-08T06:12:08;102103.84;;;7.21;82.77
30897;BME280;64229;52.246;21.054;2023-05-08T06:14:33;102104.72;;;7.28;82.30
30897;BME280;64229;52.246;21.054;2023-05-08T06:16:58;102127.06;;;7.47;81.65
30897;BME280;64229;52.246;21.054;2023-05-08T06:19:24;102119.09;;;7.53;81.12
30897;BME280;64229;52.246;21.054;2023-05-08T06:21:50;102130.19;;;7.70;80.51
30897;BME280;64229;52.246;21.054;2023-05-08T06:24:16;102127.97;;;7.80;79.62
30897;BME280;64229;52.246;21.054;2023-05-08T06:26:41;102132.66;;;7.85;76.33
30897;BME280;64229;52.246;21.054;2023-05-08T06:29:06;102122.91;;;7.99;76.42
30897;BME280;64229;52.246;21.054;2023-05-08T06:31:31;102124.97;;;8.10;75.70
30897;BME280;64229;52.246;21.054;2023-05-08T06:33:57;102097.31;;;8.04;75.11
30897;BME280;64229;52.246;21.054;2023-05-08T06:36:22;102123.13;;;8.30;74.76
30897;BME280;64229;52.246;21.054;2023-05-08T06:38:48;102122.75;;;8.40;74.17
30897;BME280;64229;52.246;21.054;2023-05-08T06:41:13;102121.50;;;8.49;72.81
30897;BME280;64229;52.246;21.054;2023-05-08T06:43:38;102119.22;;;8.59;72.99
30897;BME280;64229;52.246;21.054;2023-05-08T06:46:04;102128.03;;;8.66;72.40
30897;BME280;64229;52.246;21.054;2023-05-08T06:48:29;102121.47;;;8.76;72.37
30897;BME280;64229;52.246;21.054;2023-05-08T06:50:55;102093.63;;;8.65;70.65
30897;BME280;64229;52.246;21.054;2023-05-08T06:53:20;102125.31;;;8.93;68.81
30897;BME280;64229;52.246;21.054;2023-05-08T06:55:45;102115.47;;;9.00;68.44
30897;BME280;64229;52.246;21.054;2023-05-08T06:58:11;102115.25;;;9.08;67.86
30897;BME280;64229;52.246;21.054;2023-05-08T07:00:36;102116.44;;;9.19;67.79
30897;BME280;64229;52.246;21.054;2023-05-08T07:03:02;102122.72;;;9.31;66.94
30897;BME280;64229;52.246;21.054;2023-05-08T07:05:28;102116.13;;;9.40;66.08
30897;BME280;64229;52.246;21.054;2023-05-08T07:07:53;102108.97;;;9.41;64.02
30897;BME280;64229;52.246;21.054;2023-05-08T07:10:21;102108.28;;;9.52;64.23
30897;BME280;64229;52.246;21.054;2023-05-08T07:12:48;102117.44;;;9.63;64.05
30897;BME280;64229;52.246;21.054;2023-05-08T07:15:13;102091.63;;;9.56;63.56
30897;BME280;64229;52.246;21.054;2023-05-08T07:17:38;102108.09;;;9.85;62.83
30897;BME280;64229;52.246;21.054;2023-05-08T07:20:04;102115.13;;;10.04;62.31
30897;BME280;64229;52.246;21.054;2023-05-08T07:22:30;102118.97;;;10.15;60.77
30897;BME280;64229;52.246;21.054;2023-05-08T07:24:55;102125.47;;;10.26;59.77
30897;BME280;64229;52.246;21.054;2023-05-08T07:27:20;102127.72;;;10.54;57.40
30897;BME280;64229;52.246;21.054;2023-05-08T07:29:46;102122.63;;;12.97;53.94
30897;BME280;64229;52.246;21.054;2023-05-08T07:32:11;102123.31;;;16.58;43.02
30897;BME280;64229;52.246;21.054;2023-05-08T07:34:37;102126.13;;;19.63;34.38
30897;BME280;64229;52.246;21.054;2023-05-08T07:37:02;102127.94;;;21.55;29.64
30897;BME280;64229;52.246;21.054;2023-05-08T07:39:27;102126.53;;;23.38;27.42
30897;BME280;64229;52.246;21.054;2023-05-08T07:41:53;102126.31;;;25.26;24.26
30897;BME280;64229;52.246;21.054;2023-05-08T07:44:18;102113.88;;;26.70;23.57
30897;BME280;64229;52.246;21.054;2023-05-08T07:46:44;102120.00;;;28.01;21.15
30897;BME280;64229;52.246;21.054;2023-05-08T07:49:09;102122.88;;;28.99;19.64
30897;BME280;64229;52.246;21.054;2023-05-08T07:51:35;102116.44;;;29.59;19.74
30897;BME280;64229;52.246;21.054;2023-05-08T07:54:00;102122.97;;;30.11;18.33
30897;BME280;64229;52.246;21.054;2023-05-08T07:56:25;102121.66;;;30.52;18.89
30897;BME280;64229;52.246;21.054;2023-05-08T07:58:51;102117.34;;;30.86;17.73
30897;BME280;64229;52.246;21.054;2023-05-08T08:01:17;102113.50;;;31.26;17.09
30897;BME280;64229;52.246;21.054;2023-05-08T08:03:44;102112.91;;;31.17;17.36
30897;BME280;64229;52.246;21.054;2023-05-08T08:06:09;102113.44;;;31.42;16.92
30897;BME280;64229;52.246;21.054;2023-05-08T08:08:35;102116.78;;;30.02;17.79
30897;BME280;64229;52.246;21.054;2023-05-08T08:11:00;102108.31;;;29.79;18.20
30897;BME280;64229;52.246;21.054;2023-05-08T08:13:25;102118.19;;;30.23;17.42
30897;BME280;64229;52.246;21.054;2023-05-08T08:15:51;102111.84;;;30.86;17.65
30897;BME280;64229;52.246;21.054;2023-05-08T08:18:16;102104.75;;;31.04;17.28
30897;BME280;64229;52.246;21.054;2023-05-08T08:20:41;102105.41;;;30.98;16.75
30897;BME280;64229;52.246;21.054;2023-05-08T08:23:07;102108.00;;;30.91;16.42
30897;BME280;64229;52.246;21.054;2023-05-08T08:25:32;102101.75;;;30.94;16.77
30897;BME280;64229;52.246;21.054;2023-05-08T08:27:57;102105.75;;;30.96;17.09
30897;BME280;64229;52.246;21.054;2023-05-08T08:30:23;102102.84;;;31.24;16.55
30897;BME280;64229;52.246;21.054;2023-05-08T08:32:48;102105.56;;;30.54;16.63
30897;BME280;64229;52.246;21.054;2023-05-08T08:35:14;102091.41;;;27.90;19.01
30897;BME280;64229;52.246;21.054;2023-05-08T08:37:39;102096.06;;;27.35;20.12
30897;BME280;64229;52.246;21.054;2023-05-08T08:40:05;102094.81;;;27.87;18.83
30897;BME280;64229;52.246;21.054;2023-05-08T08:42:30;102095.09;;;27.52;19.75
30897;BME280;64229;52.246;21.054;2023-05-08T08:44:56;102088.78;;;26.21;21.10
30897;BME280;64229;52.246;21.054;2023-05-08T08:47:25;102081.00;;;25.77;22.11
30897;BME280;64229;52.246;21.054;2023-05-08T08:49:52;102084.56;;;25.43;21.68
30897;BME280;64229;52.246;21.054;2023-05-08T08:52:38;102091.00;;;23.79;23.12
30897;BME280;64229;52.246;21.054;2023-05-08T08:55:10;102083.47;;;22.03;24.63
30897;BME280;64229;52.246;21.054;2023-05-08T08:57:47;102066.31;;;21.13;26.04
30897;BME280;64229;52.246;21.054;2023-05-08T09:00:18;102074.78;;;22.47;24.98
30897;BME280;64229;52.246;21.054;2023-05-08T09:02:44;102078.47;;;23.20;25.00
30897;BME280;64229;52.246;21.054;2023-05-08T09:05:10;102080.94;;;23.07;23.79
30897;BME280;64229;52.246;21.054;2023-05-08T09:07:36;102080.50;;;22.18;24.84
30897;BME280;64229;52.246;21.054;2023-05-08T09:10:04;102076.81;;;21.01;25.80
30897;BME280;64229;52.246;21.054;2023-05-08T09:12:30;102074.06;;;19.71;26.78
30897;BME280;64229;52.246;21.054;2023-05-08T09:14:55;102083.47;;;19.34;27.98
30897;BME280;64229;52.246;21.054;2023-05-08T09:17:21;102070.25;;;20.59;26.72
30897;BME280;64229;52.246;21.054;2023-05-08T09:19:48;102067.94;;;22.77;24.24
30897;BME280;64229;52.246;21.054;2023-05-08T09:22:14;102072.50;;;23.54;23.09
30897;BME280;64229;52.246;21.054;2023-05-08T09:24:54;102074.59;;;22.57;22.43
30897;BME280;64229;52.246;21.054;2023-05-08T09:27:24;102069.66;;;22.87;22.10
30897;BME280;64229;52.246;21.054;2023-05-08T09:30:10;102070.56;;;23.32;22.55
30897;BME280;64229;52.246;21.054;2023-05-08T09:32:41;102065.84;;;24.13;21.04
30897;BME280;64229;52.246;21.054;2023-05-08T09:35:08;102066.97;;;24.43;21.04
30897;BME280;64229;52.246;21.054;2023-05-08T09:37:37;102069.41;;;25.02;20.84
30897;BME280;64229;52.246;21.054;2023-05-08T09:40:17;102058.09;;;25.99;20.07
30897;BME280;64229;52.246;21.054;2023-05-08T09:42:44;102051.50;;;26.00;19.52
30897;BME280;64229;52.246;21.054;2023-05-08T09:45:10;102058.47;;;24.45;20.44
30897;BME280;64229;52.246;21.054;2023-05-08T09:47:35;102047.59;;;22.88;22.12
30897;BME280;64229;52.246;21.054;2023-05-08T09:52:32;102055.44;;;24.15;21.19
30897;BME280;64229;52.246;21.054;2023-05-08T09:55:02;102054.78;;;25.06;20.32
30897;BME280;64229;52.246;21.054;2023-05-08T09:57:30;102053.81;;;25.54;19.95
30897;BME280;64229;52.246;21.054;2023-05-08T10:00:08;102052.50;;;25.00;20.53
30897;BME280;64229;52.246;21.054;2023-05-08T10:02:36;102043.22;;;25.27;19.48
30897;BME280;64229;52.246;21.054;2023-05-08T10:05:02;102052.06;;;25.06;19.49
30897;BME280;64229;52.246;21.054;2023-05-08T10:07:34;102043.84;;;24.41;20.65
30897;BME280;64229;52.246;21.054;2023-05-08T10:10:04;102042.31;;;23.28;21.52
30897;BME280;64229;52.246;21.054;2023-05-08T10:12:31;102036.47;;;22.30;22.92
30897;BME280;64229;52.246;21.054;2023-05-08T10:14:57;102023.13;;;21.17;23.88
30897;BME280;64229;52.246;21.054;2023-05-08T10:17:43;102029.03;;;20.33;24.84
30897;BME280;64229;52.246;21.054;2023-05-08T10:20:13;102005.50;;;19.36;25.87
30897;BME280;64229;52.246;21.054;2023-05-08T10:22:42;102030.97;;;18.86;26.80
30897;BME280;64229;52.246;21.054;2023-05-08T10:25:13;102028.66;;;18.49;27.18
30897;BME280;64229;52.246;21.054;2023-05-08T10:27:44;102021.63;;;18.48;26.79
30897;BME280;64229;52.246;21.054;2023-05-08T10:30:12;102025.97;;;18.44;27.01
30897;BME280;64229;52.246;21.054;2023-05-08T10:32:42;102016.72;;;18.65;27.21
30897;BME280;64229;52.246;21.054;2023-05-08T10:35:09;102016.59;;;18.91;27.57
30897;BME280;64229;52.246;21.054;2023-05-08T10:37:36;102020.16;;;18.81;26.47
30897;BME280;64229;52.246;21.054;2023-05-08T10:40:04;102015.38;;;18.58;26.90
30897;BME280;64229;52.246;21.054;2023-05-08T10:42:32;102013.81;;;18.36;27.11
30897;BME280;64229;52.246;21.054;2023-05-08T10:44:58;102016.56;;;18.16;28.72
30897;BME280;64229;52.246;21.054;2023-05-08T10:47:35;102002.03;;;18.02;28.34
30897;BME280;64229;52.246;21.054;2023-05-08T10:55:41;101988.22;;;17.01;27.48
30897;BME280;64229;52.246;21.054;2023-05-08T10:58:13;101999.00;;;17.01;27.49
30897;BME280;64229;52.246;21.054;2023-05-08T11:03:22;101984.41;;;16.92;27.83
30897;BME280;64229;52.246;21.054;2023-05-08T11:05:51;102002.72;;;16.90;28.34
30897;BME280;64229;52.246;21.054;2023-05-08T11:08:19;102008.38;;;16.89;28.29
30897;BME280;64229;52.246;21.054;2023-05-08T11:11:09;102008.91;;;16.81;28.27
30897;BME280;64229;52.246;21.054;2023-05-08T11:13:40;101997.44;;;16.53;28.69
30897;BME280;64229;52.246;21.054;2023-05-08T11:16:07;102002.44;;;16.29;29.01
30897;BME280;64229;52.246;21.054;2023-05-08T11:18:35;101998.28;;;16.11;29.35
30897;BME280;64229;52.246;21.054;2023-05-08T11:21:05;101997.94;;;15.98;29.68
30897;BME280;64229;52.246;21.054;2023-05-08T11:23:32;101984.47;;;15.98;29.89
30897;BME280;64229;52.246;21.054;2023-05-08T11:26:15;101978.13;;;16.19;31.01
30897;BME280;64229;52.246;21.054;2023-05-08T11:29:01;101982.78;;;16.34;30.29
30897;BME280;64229;52.246;21.054;2023-05-08T11:31:49;101957.97;;;16.27;28.72
30897;BME280;64229;52.246;21.054;2023-05-08T11:37:18;101958.44;;;16.13;28.87
30897;BME280;64229;52.246;21.054;2023-05-08T11:39:44;101979.44;;;16.11;29.21
30897;BME280;64229;52.246;21.054;2023-05-08T11:45:08;101968.06;;;16.04;29.31
30897;BME280;64229;52.246;21.054;2023-05-08T11:47:41;101971.06;;;16.08;29.52
30897;BME280;64229;52.246;21.054;2023-05-08T11:50:08;101976.19;;;16.09;29.13
30897;BME280;64229;52.246;21.054;2023-05-08T11:52:34;101969.41;;;15.97;29.10
30897;BME280;64229;52.246;21.054;2023-05-08T11:55:04;101951.97;;;15.72;29.31
30897;BME280;64229;52.246;21.054;2023-05-08T11:57:30;101978.59;;;15.69;29.76
30897;BME280;64229;52.246;21.054;2023-05-08T11:59:56;101977.41;;;15.54;29.45
30897;BME280;64229;52.246;21.054;2023-05-08T12:02:38;101972.84;;;15.28;30.20
30897;BME280;64229;52.246;21.054;2023-05-08T12:05:05;101969.22;;;15.12;30.49
30897;BME280;64229;52.246;21.054;2023-05-08T12:07:31;101957.53;;;15.28;30.13
30897;BME280;64229;52.246;21.054;2023-05-08T12:10:00;101961.63;;;15.63;30.17
30897;BME280;64229;52.246;21.054;2023-05-08T12:12:38;101956.44;;;15.94;29.54
30897;BME280;64229;52.246;21.054;2023-05-08T12:15:08;101965.09;;;16.01;28.48
30897;BME280;64229;52.246;21.054;2023-05-08T12:17:34;101952.44;;;15.96;28.80
30897;BME280;64229;52.246;21.054;2023-05-08T12:20:11;101966.44;;;15.98;29.37
30897;BME280;64229;52.246;21.054;2023-05-08T12:22:38;101934.59;;;15.90;29.52
30897;BME280;64229;52.246;21.054;2023-05-08T12:25:06;101951.63;;;16.01;29.55
30897;BME280;64229;52.246;21.054;2023-05-08T12:27:31;101955.13;;;15.96;29.58
30897;BME280;64229;52.246;21.054;2023-05-08T12:29:57;101954.13;;;15.70;29.79
30897;BME280;64229;52.246;21.054;2023-05-08T12:32:22;101930.41;;;15.35;30.04
30897;BME280;64229;52.246;21.054;2023-05-08T12:34:48;101951.66;;;15.31;30.29
30897;BME280;64229;52.246;21.054;2023-05-08T12:37:25;101947.16;;;15.42;29.85
30897;BME280;64229;52.246;21.054;2023-05-08T12:39:50;101935.44;;;15.58;30.17
30897;BME280;64229;52.246;21.054;2023-05-08T12:42:16;101940.06;;;16.05;29.83
30897;BME280;64229;52.246;21.054;2023-05-08T12:44:49;101934.38;;;16.49;29.27
30897;BME280;64229;52.246;21.054;2023-05-08T12:47:17;101937.97;;;16.75;29.23
30897;BME280;64229;52.246;21.054;2023-05-08T12:49:43;101937.75;;;16.97;28.92
30897;BME280;64229;52.246;21.054;2023-05-08T12:52:11;101930.47;;;16.92;28.02
30897;BME280;64229;52.246;21.054;2023-05-08T12:54:39;101931.16;;;16.62;28.18
30897;BME280;64229;52.246;21.054;2023-05-08T12:57:12;101934.91;;;16.51;28.61
30897;BME280;64229;52.246;21.054;2023-05-08T12:59:39;101926.81;;;16.56;28.88
30897;BME280;64229;52.246;21.054;2023-05-08T13:02:14;101934.41;;;16.64;28.78
30897;BME280;64229;52.246;21.054;2023-05-08T13:04:40;101925.19;;;16.55;28.48
30897;BME280;64229;52.246;21.054;2023-05-08T13:07:05;101927.91;;;16.50;28.06
30897;BME280;64229;52.246;21.054;2023-05-08T13:09:31;101916.56;;;16.48;27.52
30897;BME280;64229;52.246;21.054;2023-05-08T13:11:56;101915.19;;;16.45;28.15
30897;BME280;64229;52.246;21.054;2023-05-08T13:14:21;101914.47;;;16.60;28.71
30897;BME280;64229;52.246;21.054;2023-05-08T13:16:47;101909.94;;;16.76;27.96
30897;BME280;64229;52.246;21.054;2023-05-08T13:19:13;101906.03;;;16.46;27.61
30897;BME280;64229;52.246;21.054;2023-05-08T13:21:42;101914.94;;;16.47;27.68
30897;BME280;64229;52.246;21.054;2023-05-08T13:24:11;101908.25;;;16.65;27.47
30897;BME280;64229;52.246;21.054;2023-05-08T13:26:37;101898.63;;;16.89;26.69
30897;BME280;64229;52.246;21.054;2023-05-08T13:29:02;101900.28;;;17.16;26.72
30897;BME280;64229;52.246;21.054;2023-05-08T13:31:27;101899.72;;;17.29;26.41